Map

Track Data

SID SEASON NUMBER BASIN SUBBASIN NAME ISO_TIME NATURE LAT LON WMO_WIND WMO_PRES WMO_AGENCY TRACK_TYPE DIST2LAND LANDFALL IFLAG USA_AGENCY USA_ATCF_ID USA_LAT USA_LON USA_RECORD USA_STATUS USA_WIND USA_PRES USA_SSHS USA_R34_NE USA_R34_SE USA_R34_SW USA_R34_NW USA_R50_NE USA_R50_SE USA_R50_SW USA_R50_NW USA_R64_NE USA_R64_SE USA_R64_SW USA_R64_NW USA_POCI USA_ROCI USA_RMW USA_EYE TOKYO_LAT TOKYO_LON TOKYO_GRADE TOKYO_WIND TOKYO_PRES TOKYO_R50_DIR TOKYO_R50_LONG TOKYO_R50_SHORT TOKYO_R30_DIR TOKYO_R30_LONG TOKYO_R30_SHORT TOKYO_LAND CMA_LAT CMA_LON CMA_CAT CMA_WIND CMA_PRES HKO_LAT HKO_LON HKO_CAT HKO_WIND HKO_PRES NEWDELHI_LAT NEWDELHI_LON NEWDELHI_GRADE NEWDELHI_WIND NEWDELHI_PRES NEWDELHI_CI NEWDELHI_DP NEWDELHI_POCI REUNION_LAT REUNION_LON REUNION_TYPE REUNION_WIND REUNION_PRES REUNION_TNUM REUNION_CI REUNION_RMW REUNION_R34_NE REUNION_R34_SE REUNION_R34_SW REUNION_R34_NW REUNION_R50_NE REUNION_R50_SE REUNION_R50_SW REUNION_R50_NW REUNION_R64_NE REUNION_R64_SE REUNION_R64_SW REUNION_R64_NW BOM_LAT BOM_LON BOM_TYPE BOM_WIND BOM_PRES BOM_TNUM BOM_CI BOM_RMW BOM_R34_NE BOM_R34_SE BOM_R34_SW BOM_R34_NW BOM_R50_NE BOM_R50_SE BOM_R50_SW BOM_R50_NW BOM_R64_NE BOM_R64_SE BOM_R64_SW BOM_R64_NW BOM_ROCI BOM_POCI BOM_EYE BOM_POS_METHOD BOM_PRES_METHOD NADI_LAT NADI_LON NADI_CAT NADI_WIND NADI_PRES WELLINGTON_LAT WELLINGTON_LON WELLINGTON_WIND WELLINGTON_PRES DS824_LAT DS824_LON DS824_STAGE DS824_WIND DS824_PRES TD9636_LAT TD9636_LON TD9636_STAGE TD9636_WIND TD9636_PRES TD9635_LAT TD9635_LON TD9635_WIND TD9635_PRES TD9635_ROCI NEUMANN_LAT NEUMANN_LON NEUMANN_CLASS NEUMANN_WIND NEUMANN_PRES MLC_LAT MLC_LON MLC_CLASS MLC_WIND MLC_PRES USA_GUST BOM_GUST BOM_GUST_PER REUNION_GUST REUNION_GUST_PER USA_SEAHGT USA_SEARAD_NE USA_SEARAD_SE USA_SEARAD_SW USA_SEARAD_NW STORM_SPEED STORM_DIR
1950239N17229 1950 66 EP MM NOT_NAMED 1950-08-26 12:00:00 TS 17.3000 -131.500 75 hurdat_epa main 2051 2051 O________OO___ hurdat_epa EP051950 17.3000 -131.500 HU 75 1 17.3000 -131.500 TC 75 17.3000 -131.500 4 10 296
1950239N17229 1950 66 EP MM NOT_NAMED 1950-08-26 15:00:00 TS 17.5092 -131.955 main 2080 2080 P________PP___ EP051950 17.5152 -131.955 HU 75 1 17.5152 -131.955 TC 75 17.4854 -131.958 4 9 294
1950239N17229 1950 66 EP MM NOT_NAMED 1950-08-26 18:00:00 TS 17.6912 -132.401 75 hurdat_epa main 2101 2101 O________OP___ hurdat_epa EP051950 17.7000 -132.400 HU 75 1 17.7000 -132.400 TC 75 17.6562 -132.404 4 9 291
1950239N17229 1950 66 EP MM NOT_NAMED 1950-08-26 21:00:00 TS 17.8237 -132.823 main 2129 2129 P________PP___ EP051950 17.8300 -132.823 HU 75 1 17.8300 -132.823 TC 75 17.7989 -132.822 4 8 285
1950239N17229 1950 66 EP MM NOT_NAMED 1950-08-27 00:00:00 TS 17.9000 -133.200 75 hurdat_epa main 2158 2158 O________OO___ hurdat_epa EP051950 17.9000 -133.200 HU 75 1 17.9000 -133.200 TC 75 17.9000 -133.200 4 7 278
1950239N17229 1950 66 EP MM NOT_NAMED 1950-08-27 03:00:00 TS 17.9164 -133.518 main 2185 2185 P________PP___ EP051950 17.9074 -133.515 HU 75 1 17.9074 -133.515 TC 75 17.9523 -133.528 4 6 271
1950239N17229 1950 66 EP MM NOT_NAMED 1950-08-27 06:00:00 TS 17.9144 -133.805 75 hurdat_epa main 2211 2186 O________OP___ hurdat_epa EP051950 17.9000 -133.800 HU 75 1 17.9000 -133.800 TC 75 17.9718 -133.823 4 6 274
1950239N17229 1950 66 EP MM NOT_NAMED 1950-08-27 09:00:00 TS 17.9500 -134.095 main 2184 2153 P________PP___ EP051950 17.9424 -134.092 HU 75 1 17.9424 -134.092 TC 75 17.9804 -134.106 4 6 279
1950239N17229 1950 66 EP MM NOT_NAMED 1950-08-27 12:00:00 TS 18.0000 -134.400 75 hurdat_epa main 2153 2121 O________OO___ hurdat_epa EP051950 18.0000 -134.400 HU 75 1 18.0000 -134.400 TC 75 18.0000 -134.400 4 6 279
1950239N17229 1950 66 EP MM NOT_NAMED 1950-08-27 15:00:00 TS 18.0461 -134.743 main 2121 2078 P________PP___ EP051950 18.0425 -134.743 HU 75 1 18.0425 -134.743 TC 75 18.0607 -134.744 4 7 279
1950239N17229 1950 66 EP MM NOT_NAMED 1950-08-27 18:00:00 TS 18.1070 -135.100 75 hurdat_epa main 2078 2045 O________OP___ hurdat_epa EP051950 18.1000 -135.100 HU 75 1 18.1000 -135.100 TC 75 18.1351 -135.100 4 7 283
1950239N17229 1950 66 EP MM NOT_NAMED 1950-08-27 21:00:00 TS 18.1974 -135.457 main 2035 2002 P________PP___ EP051950 18.1925 -135.457 HU 75 1 18.1925 -135.457 TC 75 18.2169 -135.456 4 7 286
1950239N17229 1950 66 EP MM NOT_NAMED 1950-08-28 00:00:00 TS 18.3000 -135.800 75 hurdat_epa main 2002 1969 O________OO___ hurdat_epa EP051950 18.3000 -135.800 HU 75 1 18.3000 -135.800 TC 75 18.3000 -135.800 4 7 288
1950239N17229 1950 66 EP MM NOT_NAMED 1950-08-28 03:00:00 TS 18.4017 -136.110 main 1969 1936 P________PP___ EP051950 18.4074 -136.108 HU 75 1 18.4074 -136.108 TC 75 18.3788 -136.118 4 6 288
1950239N17229 1950 66 EP MM NOT_NAMED 1950-08-28 06:00:00 TS 18.4914 -136.405 75 hurdat_epa main 1936 1905 O________OP___ hurdat_epa EP051950 18.5000 -136.400 HU 75 1 18.5000 -136.400 TC 75 18.4572 -136.423 4 6 285
1950239N17229 1950 66 EP MM NOT_NAMED 1950-08-28 09:00:00 TS 18.5524 -136.709 main 1904 1872 P________PP___ EP051950 18.5575 -136.708 HU 75 1 18.5575 -136.708 TC 75 18.5320 -136.715 4 6 281
1950239N17229 1950 66 EP MM NOT_NAMED 1950-08-28 12:00:00 TS 18.6000 -137.000 75 hurdat_epa main 1872 1851 O________OO___ hurdat_epa EP051950 18.6000 -137.000 HU 75 1 18.6000 -137.000 TC 75 18.6000 -137.000 4 5 281
1950239N17229 1950 66 EP MM NOT_NAMED 1950-08-28 15:00:00 TS 18.6513 -137.253 main 1840 1819 P________PP___ EP051950 18.6499 -137.250 HU 75 1 18.6499 -137.250 TC 75 18.6568 -137.266 4 5 282
1950239N17229 1950 66 EP MM NOT_NAMED 1950-08-28 18:00:00 TS 18.7014 -137.506 75 hurdat_epa main 1819 1787 O________OP___ hurdat_epa EP051950 18.7000 -137.500 HU 75 1 18.7000 -137.500 TC 75 18.7070 -137.528 4 5 281
1950239N17229 1950 66 EP MM NOT_NAMED 1950-08-28 21:00:00 TS 18.7507 -137.788 main 1786 1755 P________PP___ EP051950 18.7499 -137.785 HU 75 1 18.7499 -137.785 TC 75 18.7537 -137.800 4 6 280
1950239N17229 1950 66 EP MM NOT_NAMED 1950-08-29 00:00:00 TS 18.8000 -138.100 75 hurdat_epa main 1755 1723 O________OO___ hurdat_epa EP051950 18.8000 -138.100 HU 75 1 18.8000 -138.100 TC 75 18.8000 -138.100 4 6 279
1950239N17229 1950 66 EP MM NOT_NAMED 1950-08-29 03:00:00 TS 18.8491 -138.437 main 1723 1680 P________PP___ EP051950 18.8499 -138.435 HU 75 1 18.8499 -138.435 TC 75 18.8460 -138.446 4 7 278
1950239N17229 1950 66 EP MM NOT_NAMED 1950-08-29 06:00:00 TS 18.8985 -138.804 75 hurdat_epa main 1680 1639 O________OP___ hurdat_epa EP051950 18.9000 -138.800 HU 75 1 18.9000 -138.800 TC 75 18.8925 -138.820 4 7 278
1950239N17229 1950 66 EP MM NOT_NAMED 1950-08-29 09:00:00 TS 18.9486 -139.202 main 1639 1596 P________PP___ EP051950 18.9500 -139.200 HU 75 1 18.9500 -139.200 TC 75 18.9428 -139.209 4 8 278
1950239N17229 1950 66 EP MM NOT_NAMED 1950-08-29 12:00:00 TS 19.0000 -139.600 75 hurdat_epa main 1596 1564 O________OO___ hurdat_epa EP051950 19.0000 -139.600 HU 75 1 19.0000 -139.600 TC 75 19.0000 -139.600 4 7 278
1950239N17229 1950 66 EP MM NOT_NAMED 1950-08-29 15:00:00 TS 19.0465 -139.952 main 1554 1521 P________PP___ EP051950 19.0423 -139.950 HU 75 1 19.0423 -139.950 TC 75 19.0633 -139.959 4 7 279
1950239N17229 1950 66 EP CP NOT_NAMED 1950-08-29 18:00:00 TS 19.1069 -140.304 75 hurdat_epa main 1521 1479 O________OP___ hurdat_epa EP051950 19.1000 -140.300 HU 75 1 19.1000 -140.300 TC 75 19.1343 -140.320 4 7 282
1950239N17229 1950 66 EP CP NOT_NAMED 1950-08-29 21:00:00 TS 19.1966 -140.687 main 1479 1436 P________PP___ EP051950 19.1924 -140.685 HU 75 1 19.1924 -140.685 TC 75 19.2132 -140.696 4 8 284
1950239N17229 1950 66 EP CP NOT_NAMED 1950-08-30 00:00:00 TS 19.3000 -141.100 75 hurdat_epa main 1436 1394 O________OO___ hurdat_epa EP051950 19.3000 -141.100 HU 75 1 19.3000 -141.100 TC 75 19.3000 -141.100 4 8 284
1950239N17229 1950 66 EP CP NOT_NAMED 1950-08-30 03:00:00 TS 19.3988 -141.536 main 1394 1341 P________PP___ EP051950 19.3999 -141.535 HU 75 1 19.3999 -141.535 TC 75 19.3942 -141.540 4 9 283
1950239N17229 1950 66 EP CP NOT_NAMED 1950-08-30 06:00:00 TS 19.4988 -142.002 75 hurdat_epa main 1341 1288 O________OP___ hurdat_epa EP051950 19.5000 -142.000 HU 75 1 19.5000 -142.000 TC 75 19.4939 -142.009 4 9 283
1950239N17229 1950 66 EP CP NOT_NAMED 1950-08-30 09:00:00 TS 19.5996 -142.494 main 1288 1236 P________PP___ EP051950 19.6003 -142.492 HU 75 1 19.6003 -142.492 TC 75 19.5966 -142.499 4 10 282
1950239N17229 1950 66 EP CP NOT_NAMED 1950-08-30 12:00:00 TS 19.7000 -143.000 75 hurdat_epa main 1236 O________OO___ hurdat_epa EP051950 19.7000 -143.000 HU 75 1 19.7000 -143.000 TC 75 19.7000 -143.000 4 10 282

About IBTrACS Database

This database is a web-friendly format of International Best Track Archive for Climate Stewardship (IBTrACS), a global best track data archive curated by NOAA dating back to 1842.

Updated: 2021-12-08